Wetterdaten: Woche 23.03.15 - 29.03.15 (KW13)
Datum Zeit Temp. A. Feuchte A. Luftdruck Regen Wind Richtung Sonnenschein ET UV Solar Taupunkt Windchill Windben
23.03.2015 00:00 -0,2 C 84 % 1022,0 hPa 0,0 l/m 0,0 km/h (0 Bft) N 0,00 h 0,000 mm 0,0 UV-I 0 W/m -2,5 C -0,2 C 0,1 km/h (0 Bft)
23.03.2015 01:00 -1,3 C 87 % 1021,7 hPa 0,0 l/m 0,0 km/h (0 Bft) N 0,00 h 0,000 mm 0,0 UV-I 0 W/m -3,1 C -1,3 C 0,3 km/h (0 Bft)
23.03.2015 02:00 -1,9 C 90 % 1021,5 hPa 0,0 l/m 0,1 km/h (0 Bft) N 0,00 h 0,000 mm 0,0 UV-I 0 W/m -3,3 C -1,9 C 0,5 km/h (0 Bft)
23.03.2015 03:00 -2,3 C 90 % 1021,1 hPa 0,0 l/m 0,0 km/h (0 Bft) N 0,00 h 0,000 mm 0,0 UV-I 0 W/m -3,7 C -2,3 C 0,0 km/h (0 Bft)
23.03.2015 04:00 -2,8 C 91 % 1020,6 hPa 0,0 l/m 0,0 km/h (0 Bft) N 0,00 h 0,000 mm 0,0 UV-I 0 W/m -4,1 C -2,8 C 0,0 km/h (0 Bft)
23.03.2015 05:00 -3,3 C 91 % 1020,5 hPa 0,0 l/m 0,0 km/h (0 Bft) N 0,00 h 0,000 mm 0,0 UV-I 0 W/m -4,6 C -3,3 C 0,0 km/h (0 Bft)
23.03.2015 06:00 -3,4 C 92 % 1020,5 hPa 0,0 l/m 0,0 km/h (0 Bft) N 0,00 h 0,000 mm 0,0 UV-I 23 W/m -4,6 C -3,4 C 0,0 km/h (0 Bft)
23.03.2015 07:00 -1,9 C 94 % 1020,5 hPa 0,0 l/m 0,3 km/h (0 Bft) N 0,75 h 0,000 mm 0,5 UV-I 72 W/m -2,8 C -1,9 C 1,3 km/h (1 Bft)
23.03.2015 08:00 1,0 C 89 % 1020,4 hPa 0,0 l/m 0,0 km/h (0 Bft) N 1,00 h 0,025 mm 0,8 UV-I 155 W/m -0,6 C 1,0 C 0,3 km/h (0 Bft)
23.03.2015 09:00 3,1 C 83 % 1020,1 hPa 0,0 l/m 0,3 km/h (0 Bft) N 1,00 h 0,051 mm 1,2 UV-I 229 W/m 0,5 C 3,1 C 1,4 km/h (1 Bft)
23.03.2015 10:00 4,0 C 79 % 1020,0 hPa 0,0 l/m 2,8 km/h (1 Bft) W-SW 1,00 h 0,076 mm 1,7 UV-I 279 W/m 0,6 C 4,0 C 5,6 km/h (2 Bft)
23.03.2015 11:00 6,2 C 71 % 1019,3 hPa 0,0 l/m 2,6 km/h (1 Bft) SO 1,00 h 0,102 mm 3,2 UV-I 654 W/m 1,4 C 6,2 C 5,2 km/h (1 Bft)
23.03.2015 12:00 8,3 C 63 % 1018,4 hPa 0,0 l/m 1,5 km/h (1 Bft) SO 1,00 h 0,279 mm 3,4 UV-I 663 W/m 1,7 C 8,3 C 4,1 km/h (1 Bft)
23.03.2015 13:00 9,6 C 59 % 1017,4 hPa 0,0 l/m 1,5 km/h (1 Bft) N 1,00 h 0,305 mm 3,1 UV-I 637 W/m 2,0 C 9,6 C 3,9 km/h (1 Bft)
23.03.2015 14:00 10,8 C 56 % 1016,3 hPa 0,0 l/m 2,9 km/h (1 Bft) SW 1,00 h 0,305 mm 2,2 UV-I 496 W/m 2,4 C 10,7 C 5,7 km/h (2 Bft)
23.03.2015 15:00 11,2 C 55 % 1015,5 hPa 0,0 l/m 4,7 km/h (1 Bft) SW 1,00 h 0,254 mm 1,4 UV-I 389 W/m 2,6 C 11,1 C 8,3 km/h (2 Bft)
23.03.2015 16:00 10,9 C 56 % 1014,7 hPa 0,0 l/m 1,4 km/h (1 Bft) S-SW 1,00 h 0,203 mm 0,7 UV-I 221 W/m 2,5 C 10,9 C 3,4 km/h (1 Bft)
23.03.2015 17:00 10,1 C 59 % 1014,4 hPa 0,0 l/m 1,3 km/h (1 Bft) N 0,50 h 0,127 mm 0,5 UV-I 68 W/m 2,4 C 10,1 C 2,9 km/h (1 Bft)
23.03.2015 18:00 8,0 C 67 % 1014,1 hPa 0,0 l/m 2,6 km/h (1 Bft) SO 0,00 h 0,051 mm 0,0 UV-I 10 W/m 2,2 C 7,9 C 4,8 km/h (1 Bft)
23.03.2015 19:00 6,6 C 71 % 1013,9 hPa 0,0 l/m 0,2 km/h (0 Bft) N 0,00 h 0,025 mm 0,0 UV-I 0 W/m 1,7 C 6,6 C 0,9 km/h (0 Bft)
23.03.2015 20:00 5,1 C 76 % 1013,7 hPa 0,0 l/m 0,2 km/h (0 Bft) N 0,00 h 0,026 mm 0,0 UV-I 0 W/m 1,3 C 5,1 C 0,9 km/h (0 Bft)
23.03.2015 21:00 3,2 C 81 % 1013,6 hPa 0,0 l/m 0,0 km/h (0 Bft) N 0,00 h 0,025 mm 0,0 UV-I 0 W/m 0,2 C 3,2 C 0,1 km/h (0 Bft)
23.03.2015 22:00 2,0 C 85 % 1013,3 hPa 0,0 l/m 0,0 km/h (0 Bft) N 0,00 h 0,000 mm 0,0 UV-I 0 W/m -0,2 C 2,0 C 0,0 km/h (0 Bft)
23.03.2015 23:00 1,8 C 88 % 1012,9 hPa 0,0 l/m 0,0 km/h (0 Bft) N 0,00 h 0,000 mm 0,0 UV-I 0 W/m 0,1 C 1,8 C 0,0 km/h (0 Bft)
24.03.2015 00:00 1,7 C 89 % 1012,5 hPa 0,0 l/m 0,0 km/h (0 Bft) N 0,00 h 0,000 mm 0,0 UV-I 0 W/m 0,1 C 1,7 C 0,1 km/h (0 Bft)
24.03.2015 01:00 1,3 C 89 % 1011,9 hPa 0,0 l/m 0,0 km/h (0 Bft) N 0,00 h 0,000 mm 0,0 UV-I 0 W/m -0,3 C 1,3 C 0,0 km/h (0 Bft)
24.03.2015 02:00 0,5 C 89 % 1011,4 hPa 0,0 l/m 0,0 km/h (0 Bft) N 0,00 h 0,000 mm 0,0 UV-I 0 W/m -1,1 C 0,5 C 0,0 km/h (0 Bft)
24.03.2015 03:00 -0,1 C 91 % 1011,0 hPa 0,0 l/m 0,0 km/h (0 Bft) N 0,00 h 0,000 mm 0,0 UV-I 0 W/m -1,4 C -0,1 C 0,0 km/h (0 Bft)
24.03.2015 04:00 -0,3 C 92 % 1010,7 hPa 0,0 l/m 0,0 km/h (0 Bft) N 0,00 h 0,000 mm 0,0 UV-I 0 W/m -1,4 C -0,3 C 0,0 km/h (0 Bft)
24.03.2015 05:00 -0,1 C 93 % 1010,7 hPa 0,0 l/m 0,0 km/h (0 Bft) N 0,00 h 0,000 mm 0,0 UV-I 0 W/m -1,1 C -0,1 C 0,1 km/h (0 Bft)
24.03.2015 06:00 0,5 C 94 % 1010,6 hPa 0,0 l/m 0,0 km/h (0 Bft) N 0,00 h 0,000 mm 0,0 UV-I 10 W/m -0,3 C 0,5 C 0,2 km/h (0 Bft)
24.03.2015 07:00 1,3 C 95 % 1010,5 hPa 0,0 l/m 0,5 km/h (0 Bft) N 0,33 h 0,000 mm 0,0 UV-I 43 W/m 0,5 C 1,3 C 1,3 km/h (1 Bft)
24.03.2015 08:00 2,9 C 92 % 1010,3 hPa 0,0 l/m 0,1 km/h (0 Bft) N 1,00 h 0,025 mm 0,5 UV-I 102 W/m 1,8 C 2,9 C 0,7 km/h (0 Bft)
24.03.2015 09:00 5,0 C 87 % 1010,3 hPa 0,0 l/m 2,0 km/h (1 Bft) S-SW 1,00 h 0,051 mm 0,8 UV-I 141 W/m 3,1 C 5,0 C 4,3 km/h (1 Bft)
24.03.2015 10:00 5,9 C 84 % 1010,2 hPa 0,0 l/m 4,5 km/h (1 Bft) SW 1,00 h 0,051 mm 1,0 UV-I 164 W/m 3,5 C 5,8 C 7,9 km/h (2 Bft)
24.03.2015 11:00 6,5 C 83 % 1010,0 hPa 0,0 l/m 7,3 km/h (2 Bft) S-SW 1,00 h 0,076 mm 1,2 UV-I 198 W/m 3,8 C 5,3 C 12,2 km/h (2 Bft)
24.03.2015 12:00 7,6 C 78 % 1009,9 hPa 0,0 l/m 7,0 km/h (2 Bft) S 1,00 h 0,102 mm 1,9 UV-I 354 W/m 4,0 C 6,6 C 11,5 km/h (2 Bft)
24.03.2015 13:00 9,8 C 68 % 1009,3 hPa 0,0 l/m 5,0 km/h (1 Bft) S 1,00 h 0,178 mm 2,2 UV-I 497 W/m 4,3 C 9,6 C 8,7 km/h (2 Bft)
24.03.2015 14:00 11,6 C 60 % 1008,6 hPa 0,0 l/m 5,9 km/h (2 Bft) W 1,00 h 0,254 mm 1,8 UV-I 485 W/m 4,2 C 11,0 C 10,0 km/h (2 Bft)
24.03.2015 15:00 12,1 C 58 % 1008,4 hPa 0,0 l/m 8,5 km/h (2 Bft) S 1,00 h 0,254 mm 1,2 UV-I 341 W/m 4,1 C 10,7 C 13,5 km/h (3 Bft)
24.03.2015 16:00 11,7 C 60 % 1008,4 hPa 0,0 l/m 6,3 km/h (2 Bft) S 1,00 h 0,203 mm 0,6 UV-I 141 W/m 4,2 C 11,2 C 10,2 km/h (2 Bft)
24.03.2015 17:00 11,6 C 57 % 1008,4 hPa 0,0 l/m 4,6 km/h (1 Bft) W-SW 0,70 h 0,102 mm 0,0 UV-I 78 W/m 3,4 C 11,5 C 8,0 km/h (2 Bft)
24.03.2015 18:00 10,1 C 63 % 1008,7 hPa 0,0 l/m 1,1 km/h (1 Bft) N 0,00 h 0,076 mm 0,0 UV-I 13 W/m 3,4 C 10,1 C 2,9 km/h (1 Bft)
24.03.2015 19:00 8,1 C 72 % 1009,0 hPa 0,0 l/m 0,1 km/h (0 Bft) N 0,00 h 0,025 mm 0,0 UV-I 0 W/m 3,3 C 8,1 C 0,8 km/h (0 Bft)
24.03.2015 20:00 5,8 C 80 % 1009,2 hPa 0,0 l/m 0,1 km/h (0 Bft) N 0,00 h 0,025 mm 0,0 UV-I 0 W/m 2,6 C 5,8 C 0,8 km/h (0 Bft)
24.03.2015 21:00 4,4 C 84 % 1009,3 hPa 0,0 l/m 0,3 km/h (0 Bft) N 0,00 h 0,000 mm 0,0 UV-I 0 W/m 1,9 C 4,4 C 1,0 km/h (0 Bft)
24.03.2015 22:00 3,2 C 86 % 1009,2 hPa 0,0 l/m 0,1 km/h (0 Bft) N 0,00 h 0,000 mm 0,0 UV-I 0 W/m 1,1 C 3,2 C 0,2 km/h (0 Bft)
24.03.2015 23:00 2,2 C 89 % 1009,2 hPa 0,0 l/m 0,0 km/h (0 Bft) N 0,00 h 0,000 mm 0,0 UV-I 0 W/m 0,6 C 2,2 C 0,1 km/h (0 Bft)
25.03.2015 00:00 1,4 C 90 % 1009,0 hPa 0,0 l/m 0,1 km/h (0 Bft) N 0,00 h 0,000 mm 0,0 UV-I 0 W/m -0,1 C 1,4 C 0,3 km/h (0 Bft)
25.03.2015 01:00 0,9 C 92 % 1008,7 hPa 0,0 l/m 0,5 km/h (0 Bft) NW 0,00 h 0,000 mm 0,0 UV-I 0 W/m -0,2 C 0,9 C 1,3 km/h (1 Bft)
25.03.2015 02:00 0,5 C 92 % 1008,7 hPa 0,0 l/m 0,0 km/h (0 Bft) N 0,00 h 0,000 mm 0,0 UV-I 0 W/m -0,6 C 0,5 C 0,2 km/h (0 Bft)
25.03.2015 03:00 -0,0 C 92 % 1008,4 hPa 0,0 l/m 0,1 km/h (0 Bft) N 0,00 h 0,000 mm 0,0 UV-I 0 W/m -1,1 C -0,0 C 0,4 km/h (0 Bft)
25.03.2015 04:00 -0,6 C 93 % 1008,0 hPa 0,0 l/m 2,1 km/h (1 Bft) O-NO 0,00 h 0,000 mm 0,0 UV-I 0 W/m -1,6 C -0,7 C 5,2 km/h (1 Bft)
25.03.2015 05:00 -0,5 C 94 % 1007,9 hPa 0,0 l/m 0,5 km/h (0 Bft) N 0,00 h 0,000 mm 0,0 UV-I 0 W/m -1,4 C -0,5 C 2,0 km/h (1 Bft)
25.03.2015 06:00 -0,6 C 94 % 1007,7 hPa 0,0 l/m 0,5 km/h (0 Bft) N 0,05 h 0,000 mm 0,0 UV-I 25 W/m -1,4 C -0,6 C 1,2 km/h (1 Bft)
25.03.2015 07:00 1,9 C 94 % 1007,7 hPa 0,0 l/m 2,2 km/h (1 Bft) NW 1,00 h 0,000 mm 0,5 UV-I 144 W/m 1,0 C 1,9 C 5,0 km/h (1 Bft)
25.03.2015 08:00 8,5 C 77 % 1007,2 hPa 0,0 l/m 4,8 km/h (1 Bft) O-NO 1,00 h 0,051 mm 0,9 UV-I 298 W/m 4,7 C 8,1 C 9,5 km/h (2 Bft)
25.03.2015 09:00 10,7 C 67 % 1006,8 hPa 0,0 l/m 6,7 km/h (2 Bft) O-SO 1,00 h 0,152 mm 1,6 UV-I 462 W/m 4,8 C 9,9 C 13,6 km/h (3 Bft)
25.03.2015 10:00 13,1 C 58 % 1006,6 hPa 0,0 l/m 7,0 km/h (2 Bft) O 1,00 h 0,254 mm 2,2 UV-I 564 W/m 4,9 C 12,1 C 13,5 km/h (3 Bft)
25.03.2015 11:00 15,0 C 51 % 1006,2 hPa 0,0 l/m 6,7 km/h (2 Bft) O 1,00 h 0,305 mm 2,8 UV-I 617 W/m 5,1 C 14,3 C 12,8 km/h (3 Bft)
25.03.2015 12:00 16,0 C 46 % 1005,3 hPa 0,0 l/m 6,2 km/h (2 Bft) O-SO 1,00 h 0,356 mm 2,9 UV-I 616 W/m 4,2 C 15,5 C 13,0 km/h (3 Bft)
25.03.2015 13:00 16,5 C 41 % 1004,1 hPa 0,0 l/m 8,3 km/h (2 Bft) O 1,00 h 0,381 mm 2,3 UV-I 484 W/m 3,1 C 15,4 C 16,6 km/h (3 Bft)
25.03.2015 14:00 16,5 C 40 % 1003,4 hPa 0,0 l/m 9,4 km/h (2 Bft) O-NO 1,00 h 0,330 mm 1,7 UV-I 384 W/m 3,0 C 15,0 C 17,9 km/h (3 Bft)
25.03.2015 15:00 15,7 C 47 % 1003,2 hPa 0,0 l/m 9,1 km/h (2 Bft) O 1,00 h 0,279 mm 1,0 UV-I 253 W/m 4,3 C 14,2 C 17,4 km/h (3 Bft)
25.03.2015 16:00 14,6 C 51 % 1003,0 hPa 0,0 l/m 6,5 km/h (2 Bft) O 1,00 h 0,203 mm 0,6 UV-I 141 W/m 4,6 C 13,9 C 13,7 km/h (3 Bft)
25.03.2015 17:00 13,9 C 52 % 1002,8 hPa 0,0 l/m 4,5 km/h (1 Bft) O-SO 0,58 h 0,127 mm 0,0 UV-I 57 W/m 4,3 C 13,7 C 9,7 km/h (2 Bft)
25.03.2015 18:00 12,7 C 56 % 1002,7 hPa 0,0 l/m 2,7 km/h (1 Bft) O-SO 0,00 h 0,051 mm 0,0 UV-I 12 W/m 4,0 C 12,6 C 6,4 km/h (2 Bft)
25.03.2015 19:00 11,9 C 59 % 1002,9 hPa 0,0 l/m 4,0 km/h (1 Bft) O-SO 0,00 h 0,025 mm 0,0 UV-I 0 W/m 4,1 C 11,8 C 9,4 km/h (2 Bft)
25.03.2015 20:00 11,4 C 62 % 1002,9 hPa 0,0 l/m 3,3 km/h (1 Bft) O-SO 0,00 h 0,051 mm 0,0 UV-I 0 W/m 4,4 C 11,3 C 7,4 km/h (2 Bft)
25.03.2015 21:00 11,1 C 66 % 1002,6 hPa 0,0 l/m 4,1 km/h (1 Bft) O-SO 0,00 h 0,025 mm 0,0 UV-I 0 W/m 5,0 C 11,1 C 8,8 km/h (2 Bft)
25.03.2015 22:00 10,8 C 69 % 1002,6 hPa 0,0 l/m 3,2 km/h (1 Bft) O-SO 0,00 h 0,025 mm 0,0 UV-I 0 W/m 5,2 C 10,8 C 7,0 km/h (2 Bft)
25.03.2015 23:00 10,3 C 72 % 1002,7 hPa 0,0 l/m 2,1 km/h (1 Bft) O-SO 0,00 h 0,025 mm 0,0 UV-I 0 W/m 5,4 C 10,3 C 5,2 km/h (1 Bft)
26.03.2015 00:00 10,0 C 77 % 1002,4 hPa 0,0 l/m 2,3 km/h (1 Bft) O-SO 0,00 h 0,025 mm 0,0 UV-I 0 W/m 6,2 C 9,9 C 5,5 km/h (2 Bft)
26.03.2015 01:00 9,7 C 80 % 1002,3 hPa 0,0 l/m 1,2 km/h (1 Bft) O-SO 0,00 h 0,025 mm 0,0 UV-I 0 W/m 6,5 C 9,7 C 4,3 km/h (1 Bft)
26.03.2015 02:00 9,4 C 82 % 1002,3 hPa 0,0 l/m 0,6 km/h (0 Bft) O-NO 0,00 h 0,025 mm 0,0 UV-I 0 W/m 6,6 C 9,4 C 2,2 km/h (1 Bft)
26.03.2015 03:00 9,0 C 85 % 1002,5 hPa 0,0 l/m 0,4 km/h (0 Bft) N 0,00 h 0,000 mm 0,0 UV-I 0 W/m 6,6 C 9,0 C 1,5 km/h (1 Bft)
26.03.2015 04:00 8,7 C 87 % 1002,9 hPa 0,0 l/m 0,1 km/h (0 Bft) N 0,00 h 0,000 mm 0,0 UV-I 0 W/m 6,7 C 8,7 C 0,7 km/h (0 Bft)
26.03.2015 05:00 8,4 C 89 % 1003,4 hPa 0,0 l/m 0,2 km/h (0 Bft) N 0,00 h 0,000 mm 0,0 UV-I 0 W/m 6,6 C 8,4 C 0,8 km/h (0 Bft)
26.03.2015 06:00 7,9 C 90 % 1004,0 hPa 0,2 l/m 0,0 km/h (0 Bft) N 0,00 h 0,000 mm 0,0 UV-I 21 W/m 6,4 C 7,9 C 0,1 km/h (0 Bft)
26.03.2015 07:00 7,8 C 93 % 1004,5 hPa 0,0 l/m 0,4 km/h (0 Bft) N 0,25 h 0,000 mm 0,0 UV-I 36 W/m 6,7 C 7,8 C 1,2 km/h (1 Bft)
26.03.2015 08:00 7,8 C 91 % 1005,0 hPa 0,0 l/m 4,7 km/h (1 Bft) W-SW 1,00 h 0,025 mm 0,6 UV-I 97 W/m 6,4 C 7,5 C 8,2 km/h (2 Bft)
26.03.2015 09:00 7,8 C 88 % 1005,7 hPa 0,0 l/m 5,1 km/h (1 Bft) SW 1,00 h 0,051 mm 0,7 UV-I 127 W/m 6,0 C 7,6 C 9,0 km/h (2 Bft)
26.03.2015 10:00 7,6 C 88 % 1006,1 hPa 0,0 l/m 6,2 km/h (2 Bft) W-SW 1,00 h 0,051 mm 0,5 UV-I 66 W/m 5,7 C 7,0 C 10,5 km/h (2 Bft)
26.03.2015 11:00 7,0 C 90 % 1006,4 hPa 0,0 l/m 6,5 km/h (2 Bft) W-SW 0,50 h 0,025 mm 0,5 UV-I 55 W/m 5,5 C 6,3 C 10,3 km/h (2 Bft)
26.03.2015 12:00 6,9 C 89 % 1006,7 hPa 0,0 l/m 6,9 km/h (2 Bft) W-SW 0,87 h 0,025 mm 0,6 UV-I 69 W/m 5,3 C 5,9 C 11,6 km/h (2 Bft)
26.03.2015 13:00 6,9 C 89 % 1006,9 hPa 0,0 l/m 8,3 km/h (2 Bft) W-SW 0,68 h 0,025 mm 0,5 UV-I 60 W/m 5,3 C 5,2 C 12,9 km/h (3 Bft)
26.03.2015 14:00 6,5 C 90 % 1007,0 hPa 0,0 l/m 7,1 km/h (2 Bft) W-SW 0,43 h 0,002 mm 0,0 UV-I 49 W/m 4,9 C 5,3 C 11,4 km/h (2 Bft)
26.03.2015 15:00 6,4 C 89 % 1007,2 hPa 0,0 l/m 7,0 km/h (2 Bft) W-SW 0,22 h 0,025 mm 0,0 UV-I 37 W/m 4,8 C 5,5 C 10,9 km/h (2 Bft)
26.03.2015 16:00 6,3 C 88 % 1007,3 hPa 0,0 l/m 5,9 km/h (2 Bft) W-SW 0,00 h 0,025 mm 0,0 UV-I 15 W/m 4,5 C 5,8 C 9,2 km/h (2 Bft)
26.03.2015 17:00 6,1 C 89 % 1007,7 hPa 0,0 l/m 4,8 km/h (1 Bft) W 0,00 h 0,025 mm 0,0 UV-I 6 W/m 4,4 C 5,8 C 8,7 km/h (2 Bft)
26.03.2015 18:00 5,8 C 90 % 1008,3 hPa 0,0 l/m 2,3 km/h (1 Bft) W-SW 0,00 h 0,000 mm 0,0 UV-I 0 W/m 4,3 C 5,7 C 5,2 km/h (1 Bft)
26.03.2015 19:00 5,6 C 91 % 1008,5 hPa 0,2 l/m 1,9 km/h (1 Bft) SW 0,00 h 0,000 mm 0,0 UV-I 0 W/m 4,2 C 5,6 C 4,5 km/h (1 Bft)
26.03.2015 20:00 5,3 C 93 % 1008,8 hPa 0,4 l/m 2,6 km/h (1 Bft) SW 0,00 h 0,000 mm 0,0 UV-I 0 W/m 4,2 C 5,2 C 5,5 km/h (2 Bft)
26.03.2015 21:00 5,0 C 93 % 1009,3 hPa 0,4 l/m 5,2 km/h (1 Bft) W-SW 0,00 h 0,000 mm 0,0 UV-I 0 W/m 4,0 C 4,2 C 9,1 km/h (2 Bft)
26.03.2015 22:00 4,4 C 90 % 1009,6 hPa 0,0 l/m 3,7 km/h (1 Bft) W-SW 0,00 h 0,000 mm 0,0 UV-I 0 W/m 3,0 C 3,8 C 6,9 km/h (2 Bft)
26.03.2015 23:00 4,2 C 92 % 1009,7 hPa 0,0 l/m 1,8 km/h (1 Bft) S-SW 0,00 h 0,000 mm 0,0 UV-I 0 W/m 3,0 C 4,2 C 4,2 km/h (1 Bft)
27.03.2015 00:00 4,2 C 94 % 1009,9 hPa 0,0 l/m 4,8 km/h (1 Bft) SW 0,00 h 0,000 mm 0,0 UV-I 0 W/m 3,3 C 4,0 C 9,1 km/h (2 Bft)
27.03.2015 01:00 4,2 C 93 % 1010,0 hPa 0,0 l/m 4,8 km/h (1 Bft) SW 0,00 h 0,000 mm 0,0 UV-I 0 W/m 3,2 C 3,9 C 8,5 km/h (2 Bft)
27.03.2015 02:00 3,8 C 91 % 1010,3 hPa 0,0 l/m 6,4 km/h (2 Bft) W-SW 0,00 h 0,000 mm 0,0 UV-I 0 W/m 2,5 C 3,1 C 10,4 km/h (2 Bft)
27.03.2015 03:00 3,2 C 93 % 1010,7 hPa 0,4 l/m 5,3 km/h (1 Bft) W-SW 0,00 h 0,000 mm 0,0 UV-I 0 W/m 2,1 C 2,4 C 8,9 km/h (2 Bft)
27.03.2015 04:00 3,2 C 94 % 1011,1 hPa 0,0 l/m 5,7 km/h (2 Bft) W-SW 0,00 h 0,000 mm 0,0 UV-I 0 W/m 2,4 C 2,4 C 9,8 km/h (2 Bft)
27.03.2015 05:00 3,4 C 94 % 1011,6 hPa 0,0 l/m 5,5 km/h (2 Bft) W-SW 0,00 h 0,000 mm 0,0 UV-I 0 W/m 2,6 C 2,9 C 9,1 km/h (2 Bft)
27.03.2015 06:00 3,6 C 94 % 1012,4 hPa 0,0 l/m 5,6 km/h (2 Bft) W 0,00 h 0,000 mm 0,0 UV-I 5 W/m 2,7 C 3,1 C 9,3 km/h (2 Bft)
27.03.2015 07:00 3,8 C 94 % 1013,3 hPa 0,0 l/m 4,6 km/h (1 Bft) W 0,00 h 0,000 mm 0,0 UV-I 20 W/m 2,9 C 3,4 C 8,4 km/h (2 Bft)
27.03.2015 08:00 4,3 C 93 % 1014,3 hPa 0,0 l/m 3,0 km/h (1 Bft) W-SW 0,55 h 0,000 mm 0,7 UV-I 79 W/m 3,3 C 4,2 C 5,9 km/h (2 Bft)
27.03.2015 09:00 5,3 C 88 % 1014,7 hPa 0,0 l/m 8,1 km/h (2 Bft) W-SW 1,00 h 0,025 mm 1,0 UV-I 179 W/m 3,5 C 3,7 C 12,6 km/h (3 Bft)
27.03.2015 10:00 5,7 C 84 % 1015,1 hPa 0,0 l/m 9,0 km/h (2 Bft) W-SW 1,00 h 0,076 mm 1,0 UV-I 152 W/m 3,2 C 3,5 C 14,2 km/h (3 Bft)
27.03.2015 11:00 6,0 C 82 % 1015,5 hPa 0,0 l/m 12,4 km/h (2 Bft) W 1,00 h 0,076 mm 1,7 UV-I 252 W/m 3,1 C 1,9 C 18,9 km/h (3 Bft)
27.03.2015 12:00 6,0 C 78 % 1015,9 hPa 0,0 l/m 9,2 km/h (2 Bft) W-SW 1,00 h 0,127 mm 2,1 UV-I 348 W/m 2,5 C 3,8 C 14,0 km/h (3 Bft)
27.03.2015 13:00 6,7 C 72 % 1016,2 hPa 0,0 l/m 11,0 km/h (2 Bft) W-SW 1,00 h 0,152 mm 1,2 UV-I 173 W/m 2,0 C 3,4 C 16,6 km/h (3 Bft)
27.03.2015 14:00 6,7 C 74 % 1016,5 hPa 0,2 l/m 8,0 km/h (2 Bft) NW 0,90 h 0,102 mm 1,2 UV-I 180 W/m 2,4 C 5,2 C 12,4 km/h (2 Bft)
27.03.2015 15:00 6,2 C 80 % 1017,0 hPa 0,2 l/m 12,2 km/h (2 Bft) W 1,00 h 0,102 mm 1,1 UV-I 259 W/m 3,0 C 2,2 C 19,3 km/h (3 Bft)
27.03.2015 16:00 7,2 C 69 % 1017,5 hPa 0,0 l/m 12,8 km/h (3 Bft) W 0,97 h 0,127 mm 0,8 UV-I 202 W/m 1,8 C 3,0 C 19,6 km/h (3 Bft)
27.03.2015 17:00 6,3 C 73 % 1018,6 hPa 0,0 l/m 12,0 km/h (2 Bft) W 0,25 h 0,127 mm 0,0 UV-I 40 W/m 1,8 C 2,5 C 18,4 km/h (3 Bft)
27.03.2015 18:00 5,6 C 75 % 1019,3 hPa 0,0 l/m 9,6 km/h (2 Bft) W-NW 0,00 h 0,051 mm 0,0 UV-I 10 W/m 1,5 C 3,1 C 14,9 km/h (3 Bft)
27.03.2015 19:00 5,2 C 77 % 1020,0 hPa 0,0 l/m 6,8 km/h (2 Bft) W-NW 0,00 h 0,025 mm 0,0 UV-I 0 W/m 1,5 C 4,4 C 10,9 km/h (2 Bft)
27.03.2015 20:00 4,8 C 80 % 1020,6 hPa 0,0 l/m 4,3 km/h (1 Bft) W 0,00 h 0,025 mm 0,0 UV-I 0 W/m 1,7 C 4,6 C 7,8 km/h (2 Bft)
27.03.2015 21:00 4,6 C 81 % 1021,3 hPa 0,0 l/m 2,8 km/h (1 Bft) W-SW 0,00 h 0,025 mm 0,0 UV-I 0 W/m 1,6 C 4,6 C 6,1 km/h (2 Bft)
27.03.2015 22:00 4,5 C 81 % 1021,6 hPa 0,0 l/m 1,6 km/h (1 Bft) SW 0,00 h 0,025 mm 0,0 UV-I 0 W/m 1,4 C 4,5 C 4,0 km/h (1 Bft)
27.03.2015 23:00 4,4 C 81 % 1021,9 hPa 0,0 l/m 2,9 km/h (1 Bft) W-SW 0,00 h 0,025 mm 0,0 UV-I 0 W/m 1,4 C 4,3 C 5,4 km/h (2 Bft)
28.03.2015 00:00 4,6 C 78 % 1022,1 hPa 0,0 l/m 4,7 km/h (1 Bft) W-NW 0,00 h 0,025 mm 0,0 UV-I 0 W/m 1,1 C 4,3 C 8,3 km/h (2 Bft)
28.03.2015 01:00 4,5 C 79 % 1022,1 hPa 0,0 l/m 1,8 km/h (1 Bft) W 0,00 h 0,025 mm 0,0 UV-I 0 W/m 1,2 C 4,5 C 4,2 km/h (1 Bft)
28.03.2015 02:00 4,2 C 80 % 1022,2 hPa 0,0 l/m 3,1 km/h (1 Bft) W-NW 0,00 h 0,025 mm 0,0 UV-I 0 W/m 1,1 C 4,1 C 6,1 km/h (2 Bft)
28.03.2015 03:00 4,1 C 80 % 1022,2 hPa 0,0 l/m 3,4 km/h (1 Bft) W 0,00 h 0,025 mm 0,0 UV-I 0 W/m 1,0 C 4,1 C 6,1 km/h (2 Bft)
28.03.2015 04:00 4,0 C 81 % 1022,4 hPa 0,0 l/m 1,9 km/h (1 Bft) W-SW 0,00 h 0,000 mm 0,0 UV-I 0 W/m 1,0 C 4,0 C 4,3 km/h (1 Bft)
28.03.2015 05:00 3,7 C 83 % 1022,6 hPa 0,0 l/m 1,5 km/h (1 Bft) W 0,00 h 0,025 mm 0,0 UV-I 0 W/m 1,0 C 3,7 C 3,7 km/h (1 Bft)
28.03.2015 06:00 3,4 C 84 % 1022,9 hPa 0,0 l/m 1,3 km/h (1 Bft) W 0,03 h 0,000 mm 0,0 UV-I 23 W/m 1,0 C 3,4 C 3,0 km/h (1 Bft)
28.03.2015 07:00 3,9 C 82 % 1022,9 hPa 0,0 l/m 3,9 km/h (1 Bft) W 1,00 h 0,000 mm 0,6 UV-I 115 W/m 1,1 C 3,8 C 6,8 km/h (2 Bft)
28.03.2015 08:00 4,8 C 75 % 1022,8 hPa 0,0 l/m 3,8 km/h (1 Bft) W-SW 1,00 h 0,051 mm 1,0 UV-I 186 W/m 0,8 C 4,6 C 7,1 km/h (2 Bft)
28.03.2015 09:00 6,2 C 59 % 1022,6 hPa 0,0 l/m 7,7 km/h (2 Bft) NW 1,00 h 0,076 mm 1,5 UV-I 235 W/m -1,2 C 4,8 C 11,6 km/h (2 Bft)
28.03.2015 10:00 6,7 C 56 % 1022,1 hPa 0,0 l/m 8,5 km/h (2 Bft) NW 1,00 h 0,127 mm 1,6 UV-I 225 W/m -1,5 C 4,8 C 13,1 km/h (3 Bft)
28.03.2015 11:00 8,0 C 52 % 1021,3 hPa 0,0 l/m 8,2 km/h (2 Bft) W-NW 1,00 h 0,127 mm 3,4 UV-I 570 W/m -1,3 C 6,3 C 13,4 km/h (3 Bft)
28.03.2015 12:00 8,8 C 48 % 1020,5 hPa 0,0 l/m 7,8 km/h (2 Bft) W-NW 1,00 h 0,305 mm 3,3 UV-I 493 W/m -1,5 C 7,5 C 12,8 km/h (3 Bft)
28.03.2015 13:00 9,5 C 46 % 1019,6 hPa 0,0 l/m 10,0 km/h (2 Bft) W-SW 1,00 h 0,254 mm 3,3 UV-I 587 W/m -1,5 C 7,1 C 15,9 km/h (3 Bft)
28.03.2015 14:00 10,0 C 46 % 1018,7 hPa 0,0 l/m 9,7 km/h (2 Bft) W-SW 1,00 h 0,305 mm 2,7 UV-I 582 W/m -1,1 C 7,8 C 15,3 km/h (3 Bft)
28.03.2015 15:00 10,2 C 46 % 1017,7 hPa 0,0 l/m 9,1 km/h (2 Bft) W-SW 1,00 h 0,305 mm 1,7 UV-I 448 W/m -0,9 C 8,2 C 14,2 km/h (3 Bft)
28.03.2015 16:00 10,0 C 48 % 1017,0 hPa 0,0 l/m 8,3 km/h (2 Bft) SW 1,00 h 0,254 mm 0,9 UV-I 259 W/m -0,6 C 8,5 C 13,4 km/h (3 Bft)
28.03.2015 17:00 9,3 C 50 % 1016,6 hPa 0,0 l/m 6,1 km/h (2 Bft) SW 0,68 h 0,178 mm 0,5 UV-I 77 W/m -0,6 C 8,7 C 10,4 km/h (2 Bft)
28.03.2015 18:00 7,7 C 58 % 1016,4 hPa 0,0 l/m 1,0 km/h (0 Bft) SW 0,00 h 0,076 mm 0,0 UV-I 12 W/m 0,0 C 7,7 C 2,9 km/h (1 Bft)
28.03.2015 19:00 6,3 C 66 % 1016,2 hPa 0,0 l/m 0,1 km/h (0 Bft) N 0,00 h 0,000 mm 0,0 UV-I 0 W/m 0,4 C 6,3 C 0,5 km/h (0 Bft)
28.03.2015 20:00 5,7 C 71 % 1015,6 hPa 0,0 l/m 0,5 km/h (0 Bft) O-SO 0,00 h 0,025 mm 0,0 UV-I 0 W/m 0,8 C 5,7 C 2,2 km/h (1 Bft)
28.03.2015 21:00 5,8 C 73 % 1015,4 hPa 0,0 l/m 1,1 km/h (0 Bft) S-SO 0,00 h 0,025 mm 0,0 UV-I 0 W/m 1,3 C 5,8 C 2,8 km/h (1 Bft)
28.03.2015 22:00 6,2 C 75 % 1015,3 hPa 0,2 l/m 5,4 km/h (2 Bft) W-SW 0,00 h 0,025 mm 0,0 UV-I 0 W/m 2,0 C 5,4 C 10,0 km/h (2 Bft)
28.03.2015 23:00 5,8 C 85 % 1014,6 hPa 0,0 l/m 6,5 km/h (2 Bft) S-SW 0,00 h 0,025 mm 0,0 UV-I 0 W/m 3,5 C 5,2 C 10,6 km/h (2 Bft)
29.03.2015 00:00 5,4 C 90 % 1013,8 hPa 0,0 l/m 6,0 km/h (2 Bft) SW 0,00 h 0,025 mm 0,0 UV-I 0 W/m 3,8 C 4,8 C 10,7 km/h (2 Bft)
29.03.2015 01:00 5,4 C 93 % 1013,5 hPa 0,0 l/m 5,1 km/h (1 Bft) SW 0,00 h 0,000 mm 0,0 UV-I 0 W/m 4,3 C 5,1 C 9,0 km/h (2 Bft)
29.03.2015 03:00 5,5 C 94 % 1012,8 hPa 0,0 l/m 5,7 km/h (2 Bft) S 0,00 h 0,000 mm 0,0 UV-I 0 W/m 4,7 C 5,0 C 9,9 km/h (2 Bft)
29.03.2015 04:00 5,7 C 95 % 1011,6 hPa 0,2 l/m 5,1 km/h (1 Bft) S 0,00 h 0,000 mm 0,0 UV-I 0 W/m 5,0 C 5,4 C 9,0 km/h (2 Bft)
29.03.2015 05:00 6,2 C 96 % 1010,9 hPa 0,0 l/m 6,7 km/h (2 Bft) S-SW 0,00 h 0,000 mm 0,0 UV-I 0 W/m 5,6 C 5,5 C 11,4 km/h (2 Bft)
29.03.2015 06:00 6,6 C 95 % 1010,1 hPa 0,2 l/m 8,1 km/h (2 Bft) S 0,00 h 0,000 mm 0,0 UV-I 0 W/m 5,9 C 5,1 C 13,0 km/h (3 Bft)
29.03.2015 07:00 7,1 C 96 % 1009,6 hPa 0,4 l/m 8,9 km/h (2 Bft) S-SW 0,00 h 0,000 mm 0,0 UV-I 9 W/m 6,4 C 5,2 C 14,0 km/h (3 Bft)
29.03.2015 08:00 7,4 C 96 % 1008,8 hPa 0,4 l/m 9,5 km/h (2 Bft) S-SW 0,00 h 0,000 mm 0,0 UV-I 21 W/m 6,8 C 5,1 C 15,1 km/h (3 Bft)
29.03.2015 09:00 8,0 C 96 % 1008,0 hPa 0,0 l/m 12,7 km/h (3 Bft) SW 0,62 h 0,025 mm 0,5 UV-I 60 W/m 7,3 C 3,9 C 21,2 km/h (4 Bft)
29.03.2015 10:00 8,2 C 95 % 1007,6 hPa 0,4 l/m 12,0 km/h (2 Bft) W-SW 0,57 h 0,025 mm 0,5 UV-I 54 W/m 7,4 C 4,6 C 18,9 km/h (3 Bft)
29.03.2015 11:00 8,3 C 94 % 1006,9 hPa 0,2 l/m 10,3 km/h (2 Bft) W-SW 0,80 h 0,025 mm 0,6 UV-I 69 W/m 7,4 C 5,7 C 16,1 km/h (3 Bft)
29.03.2015 12:00 8,5 C 94 % 1006,1 hPa 0,4 l/m 10,2 km/h (2 Bft) W-SW 0,82 h 0,051 mm 0,8 UV-I 82 W/m 7,6 C 6,0 C 17,0 km/h (3 Bft)
29.03.2015 13:00 9,0 C 90 % 1005,2 hPa 0,0 l/m 14,7 km/h (3 Bft) W-SW 1,00 h 0,051 mm 1,0 UV-I 133 W/m 7,5 C 4,2 C 23,0 km/h (4 Bft)
29.03.2015 14:00 8,9 C 91 % 1004,5 hPa 0,4 l/m 15,2 km/h (3 Bft) W-SW 1,00 h 0,076 mm 1,0 UV-I 136 W/m 7,4 C 3,9 C 23,7 km/h (4 Bft)
29.03.2015 15:00 8,5 C 91 % 1003,6 hPa 1,2 l/m 14,3 km/h (3 Bft) W-SW 0,87 h 0,076 mm 0,8 UV-I 95 W/m 7,0 C 3,8 C 22,7 km/h (4 Bft)
29.03.2015 16:00 8,0 C 91 % 1002,8 hPa 0,6 l/m 16,8 km/h (3 Bft) W-SW 1,00 h 0,051 mm 0,6 UV-I 91 W/m 6,7 C 2,1 C 26,4 km/h (4 Bft)
29.03.2015 17:00 7,7 C 93 % 1002,1 hPa 1,4 l/m 12,5 km/h (2 Bft) W-SW 0,57 h 0,051 mm 0,5 UV-I 53 W/m 6,6 C 3,8 C 19,3 km/h (3 Bft)
29.03.2015 18:00 7,7 C 93 % 1001,1 hPa 0,6 l/m 11,9 km/h (2 Bft) SW 0,18 h 0,025 mm 0,0 UV-I 33 W/m 6,7 C 4,1 C 19,3 km/h (3 Bft)
29.03.2015 19:00 7,6 C 94 % 1000,1 hPa 1,4 l/m 13,9 km/h (3 Bft) S-SW 0,00 h 0,025 mm 0,0 UV-I 9 W/m 6,7 C 2,9 C 21,1 km/h (4 Bft)
29.03.2015 20:00 7,7 C 94 % 999,0 hPa 1,6 l/m 14,4 km/h (3 Bft) S 0,00 h 0,000 mm 0,0 UV-I 0 W/m 6,8 C 2,7 C 22,5 km/h (4 Bft)
29.03.2015 21:00 7,7 C 95 % 997,5 hPa 0,8 l/m 15,7 km/h (3 Bft) SW 0,00 h 0,000 mm 0,0 UV-I 0 W/m 7,0 C 2,2 C 24,6 km/h (4 Bft)
29.03.2015 22:00 8,0 C 94 % 996,1 hPa 0,6 l/m 17,0 km/h (3 Bft) SW 0,00 h 0,000 mm 0,0 UV-I 0 W/m 7,2 C 2,1 C 26,8 km/h (4 Bft)
29.03.2015 23:00 8,6 C 92 % 995,1 hPa 0,0 l/m 18,2 km/h (3 Bft) SW 0,00 h 0,000 mm 0,0 UV-I 0 W/m 7,3 C 2,2 C 29,6 km/h (5 Bft)
Min-Datum _ 23.03.15 25.03.15 29.03.15 - 23.03.15 - - - - - 23.03.15 23.03.15 23.03.15
_ Min-Zeit 06:04 13:12 23:58 - 00:00 - - - - - 06:04 06:04 00:00
Minimum _ -3,6 C 37 % 994,4 hPa - 0,0 km/h (0 Bft) - - - - - -4,8 C -3,6 C 0,0 km/h (0 Bft)
Max-Datum _ 25.03.15 25.03.15 28.03.15 29.03.15 29.03.15 - 23.03.15 25.03.15 28.03.15 27.03.15 29.03.15 25.03.15 29.03.15
_ Max-Zeit 13:11 07:10 06:47 20:03 22:49 - 07:10 13:00 11:42 12:52 13:05 13:09 22:49
Maximum _ 17,4 C 96 % 1023,1 hPa 1,6 l/m 29,0 km/h
SW (5 Bft)
- 0,02 h 0,381 mm 4,6 UV-I 1041 W/m 7,8 C 17,2 C 45,1 km/h
SW (6 Bft)
Durchschnitt _ 6,2 C 80 % 1011,5 hPa #13,0 l/m 4,8 km/h (1 Bft) N #63:40 h #10,149 mm 1,3 UV-I 197 W/m 2,7 C 5,3 C 8,3 km/h (2 Bft)